Sanko Maru — JG5227 — position and weather

sailwx.info

Track history (hours):
 
Tides and Currents Weather Stations Pressure Air Temp Water Temp Dewpoint Dewpoint Depression Visibility Wind Speed Wind Dir Waves Ship Positions

Sanko Maru

Last reported at 2018-Jul-22 10:58 UTC. Time now 2018-Jul-22 14:06 UTC.
Position N 35°36' E 139°54'.

Length 104 m; draft 6.8 m.

Type: Ship (hazmat cat A). MMSI: 431100146.

Date/timePositionNaut miles runAvg speedWind from/ knotsBaromVisibWave heightAir tempDewpointWater temp
2018-Jul-22 10:58N 35°36' E 139°54'0 0.0
2018-Jul-22 10:28N 35°36' E 139°54'0 0.1
2018-Jul-22 09:53N 35°36' E 139°54'410.2
2018-Jul-22 09:30N 35°32' E 139°54'612.3
2018-Jul-22 09:00N 35°27' E 139°50'612.4
2018-Jul-22 08:30N 35°22' E 139°45'611.1
2018-Jul-22 08:00N 35°16' E 139°46'612.2
2018-Jul-22 07:30N 35°10' E 139°47'612.6
2018-Jul-22 07:00N 35°04' E 139°44'612.7
2018-Jul-22 06:30N 35°00' E 139°38'713.6
2018-Jul-22 06:00N 34°56' E 139°31'18 0.5
2018-Jul-20 15:00N 34°51' E 139°11'1311.7
2018-Jul-20 13:55N 34°58' E 139°23'512.1
2018-Jul-20 13:30N 35°01' E 139°28'612.1
2018-Jul-20 13:00N 35°04' E 139°34'713.1
2018-Jul-20 12:30N 35°07' E 139°42'612.5
2018-Jul-20 12:00N 35°12' E 139°46'611.7
2018-Jul-20 11:30N 35°18' E 139°44'611.7
2018-Jul-20 11:00N 35°23' E 139°43'612.1
2018-Jul-20 10:30N 35°28' E 139°48'612.2
2018-Jul-20 10:00N 35°32' E 139°54'8 1.1
2018-Jul-20 02:46N 35°35' E 140°02'411.4
2018-Jul-20 02:27N 35°33' E 139°58'3 5.7
2018-Jul-20 01:57N 35°33' E 139°55'0 0.0
2018-Jul-20 01:27N 35°33' E 139°55'0 0.0
2018-Jul-20 00:54N 35°33' E 139°55'0 0.0
2018-Jul-20 00:27N 35°33' E 139°55'0 0.0
2018-Jul-20 00:00N 35°33' E 139°55'0 0.0
2018-Jul-19 23:24N 35°33' E 139°55'0 0.0
2018-Jul-19 22:48N 35°33' E 139°55'0 0.0
2018-Jul-19 22:24N 35°33' E 139°55'0 0.3
2018-Jul-19 22:00N 35°32' E 139°55'611.5
2018-Jul-19 21:30N 35°28' E 139°51'612.6
2018-Jul-19 21:00N 35°23' E 139°46'611.4
2018-Jul-19 20:30N 35°17' E 139°45'611.9
2018-Jul-19 20:00N 35°12' E 139°47'612.2
2018-Jul-19 19:30N 35°06' E 139°44'612.5
2018-Jul-19 19:00N 35°01' E 139°39'713.7
2018-Jul-19 18:30N 34°57' E 139°33'  
2018-Jul-16 14:07N 34°56' E 139°19'411.9
2018-Jul-16 13:48N 34°58' E 139°23'411.4
2018-Jul-16 13:26N 35°00' E 139°27'511.9
2018-Jul-16 13:01N 35°03' E 139°32'712.9
2018-Jul-16 12:30N 35°06' E 139°39'612.1
2018-Jul-16 12:00N 35°10' E 139°45'612.0
2018-Jul-16 11:30N 35°16' E 139°46'612.4
2018-Jul-16 11:00N 35°22' E 139°42'611.8
2018-Jul-16 10:31N 35°27' E 139°46'612.6
2018-Jul-16 10:00N 35°30' E 139°52'612.6
2018-Jul-16 09:29N 35°34' E 139°59'4 0.1
2018-Jul-15 07:03N 35°35' E 140°03'0 0.0
2018-Jul-15 06:57N 35°35' E 140°03'0 0.0
2018-Jul-15 06:21N 35°35' E 140°03'0 0.3
2018-Jul-15 06:00N 35°35' E 140°03'611.2
2018-Jul-15 05:30N 35°33' E 139°57'612.9
2018-Jul-15 05:00N 35°28' E 139°51'612.6
2018-Jul-15 04:30N 35°24' E 139°46'612.0
2018-Jul-15 04:00N 35°18' E 139°45'611.4
2018-Jul-15 03:30N 35°12' E 139°47'612.0
2018-Jul-15 03:00N 35°06' E 139°45'612.5
2018-Jul-15 02:30N 35°01' E 139°41'713.9
2018-Jul-15 02:00N 34°58' E 139°34'39 1.2
2018-Jul-13 16:47N 34°36' E 138°55'411.0
2018-Jul-13 16:23N 34°38' E 138°60'512.7
2018-Jul-13 16:00N 34°42' E 139°03'713.2
2018-Jul-13 15:26N 34°48' E 139°08'614.1
2018-Jul-13 15:00N 34°53' E 139°12'611.8
2018-Jul-13 14:30N 34°56' E 139°18'1211.6
2018-Jul-13 13:30N 35°02' E 139°30'713.1
2018-Jul-13 13:00N 35°05' E 139°37'713.8
2018-Jul-13 12:30N 35°09' E 139°44'713.2
2018-Jul-13 12:00N 35°15' E 139°46'613.0
2018-Jul-13 11:31N 35°21' E 139°42'612.8
2018-Jul-13 11:00N 35°27' E 139°46'713.4
2018-Jul-13 10:30N 35°31' E 139°53'712.9
2018-Jul-13 09:59N 35°34' E 140°00'0 0.0
2018-Jul-13 02:50N 35°34' E 140°00'412.0
2018-Jul-13 02:30N 35°32' E 139°56'0 0.5
2018-Jul-13 01:37N 35°32' E 139°55'0 0.1
2018-Jul-13 01:25N 35°32' E 139°55'0 0.1
2018-Jul-13 00:58N 35°32' E 139°55'0 0.0
2018-Jul-13 00:28N 35°32' E 139°55'0 0.0
2018-Jul-12 23:58N 35°32' E 139°55'0 0.0
2018-Jul-12 23:28N 35°32' E 139°55'1 3.1
2018-Jul-12 23:01N 35°31' E 139°54'611.9
2018-Jul-12 22:31N 35°27' E 139°49'611.7
2018-Jul-12 22:01N 35°22' E 139°45'510.2
2018-Jul-12 21:31N 35°17' E 139°46'610.8
2018-Jul-12 21:00N 35°11' E 139°47'612.4
2018-Jul-12 20:30N 35°06' E 139°45'713.2
2018-Jul-12 19:59N 35°01' E 139°39'714.0
2018-Jul-12 19:30N 34°57' E 139°32'  
Track history (hours):
 
Tides and Currents Weather Stations Pressure Air Temp Water Temp Dewpoint Dewpoint Depression Visibility Wind Speed Wind Dir Waves Ship Positions

Sanko Maru

Last reported at 2018-Jul-22 10:58 UTC. Time now 2018-Jul-22 14:06 UTC.
Position N 35°36' E 139°54'.

Length 104 m; draft 6.8 m.

Type: Ship (hazmat cat A). MMSI: 431100146.

Date/timePositionNaut miles runAvg speedWind from/ knotsBaromVisibWave heightAir tempDewpointWater temp
2018-Jul-22 10:58N 35°36' E 139°54'0 0.0
2018-Jul-22 10:28N 35°36' E 139°54'0 0.1
2018-Jul-22 09:53N 35°36' E 139°54'410.2
2018-Jul-22 09:30N 35°32' E 139°54'612.3
2018-Jul-22 09:00N 35°27' E 139°50'612.4
2018-Jul-22 08:30N 35°22' E 139°45'611.1
2018-Jul-22 08:00N 35°16' E 139°46'612.2
2018-Jul-22 07:30N 35°10' E 139°47'612.6
2018-Jul-22 07:00N 35°04' E 139°44'612.7
2018-Jul-22 06:30N 35°00' E 139°38'713.6
2018-Jul-22 06:00N 34°56' E 139°31'18 0.5
2018-Jul-20 15:00N 34°51' E 139°11'1311.7
2018-Jul-20 13:55N 34°58' E 139°23'512.1
2018-Jul-20 13:30N 35°01' E 139°28'612.1
2018-Jul-20 13:00N 35°04' E 139°34'713.1
2018-Jul-20 12:30N 35°07' E 139°42'612.5
2018-Jul-20 12:00N 35°12' E 139°46'611.7
2018-Jul-20 11:30N 35°18' E 139°44'611.7
2018-Jul-20 11:00N 35°23' E 139°43'612.1
2018-Jul-20 10:30N 35°28' E 139°48'612.2
2018-Jul-20 10:00N 35°32' E 139°54'8 1.1
2018-Jul-20 02:46N 35°35' E 140°02'411.4
2018-Jul-20 02:27N 35°33' E 139°58'3 5.7
2018-Jul-20 01:57N 35°33' E 139°55'0 0.0
2018-Jul-20 01:27N 35°33' E 139°55'0 0.0
2018-Jul-20 00:54N 35°33' E 139°55'0 0.0
2018-Jul-20 00:27N 35°33' E 139°55'0 0.0
2018-Jul-20 00:00N 35°33' E 139°55'0 0.0
2018-Jul-19 23:24N 35°33' E 139°55'0 0.0
2018-Jul-19 22:48N 35°33' E 139°55'0 0.0
2018-Jul-19 22:24N 35°33' E 139°55'0 0.3
2018-Jul-19 22:00N 35°32' E 139°55'611.5
2018-Jul-19 21:30N 35°28' E 139°51'612.6
2018-Jul-19 21:00N 35°23' E 139°46'611.4
2018-Jul-19 20:30N 35°17' E 139°45'611.9
2018-Jul-19 20:00N 35°12' E 139°47'612.2
2018-Jul-19 19:30N 35°06' E 139°44'612.5
2018-Jul-19 19:00N 35°01' E 139°39'713.7
2018-Jul-19 18:30N 34°57' E 139°33'  
2018-Jul-16 14:07N 34°56' E 139°19'411.9
2018-Jul-16 13:48N 34°58' E 139°23'411.4
2018-Jul-16 13:26N 35°00' E 139°27'511.9
2018-Jul-16 13:01N 35°03' E 139°32'712.9
2018-Jul-16 12:30N 35°06' E 139°39'612.1
2018-Jul-16 12:00N 35°10' E 139°45'612.0
2018-Jul-16 11:30N 35°16' E 139°46'612.4
2018-Jul-16 11:00N 35°22' E 139°42'611.8
2018-Jul-16 10:31N 35°27' E 139°46'612.6
2018-Jul-16 10:00N 35°30' E 139°52'612.6
2018-Jul-16 09:29N 35°34' E 139°59'4 0.1
2018-Jul-15 07:03N 35°35' E 140°03'0 0.0
2018-Jul-15 06:57N 35°35' E 140°03'0 0.0
2018-Jul-15 06:21N 35°35' E 140°03'0 0.3
2018-Jul-15 06:00N 35°35' E 140°03'611.2
2018-Jul-15 05:30N 35°33' E 139°57'612.9
2018-Jul-15 05:00N 35°28' E 139°51'612.6
2018-Jul-15 04:30N 35°24' E 139°46'612.0
2018-Jul-15 04:00N 35°18' E 139°45'611.4
2018-Jul-15 03:30N 35°12' E 139°47'612.0
2018-Jul-15 03:00N 35°06' E 139°45'612.5
2018-Jul-15 02:30N 35°01' E 139°41'713.9
2018-Jul-15 02:00N 34°58' E 139°34'39 1.2
2018-Jul-13 16:47N 34°36' E 138°55'411.0
2018-Jul-13 16:23N 34°38' E 138°60'512.7
2018-Jul-13 16:00N 34°42' E 139°03'713.2
2018-Jul-13 15:26N 34°48' E 139°08'614.1
2018-Jul-13 15:00N 34°53' E 139°12'611.8
2018-Jul-13 14:30N 34°56' E 139°18'1211.6
2018-Jul-13 13:30N 35°02' E 139°30'713.1
2018-Jul-13 13:00N 35°05' E 139°37'713.8
2018-Jul-13 12:30N 35°09' E 139°44'713.2
2018-Jul-13 12:00N 35°15' E 139°46'613.0
2018-Jul-13 11:31N 35°21' E 139°42'612.8
2018-Jul-13 11:00N 35°27' E 139°46'713.4
2018-Jul-13 10:30N 35°31' E 139°53'712.9
2018-Jul-13 09:59N 35°34' E 140°00'0 0.0
2018-Jul-13 02:50N 35°34' E 140°00'412.0
2018-Jul-13 02:30N 35°32' E 139°56'0 0.5
2018-Jul-13 01:37N 35°32' E 139°55'0 0.1
2018-Jul-13 01:25N 35°32' E 139°55'0 0.1
2018-Jul-13 00:58N 35°32' E 139°55'0 0.0
2018-Jul-13 00:28N 35°32' E 139°55'0 0.0
2018-Jul-12 23:58N 35°32' E 139°55'0 0.0
2018-Jul-12 23:28N 35°32' E 139°55'1 3.1
2018-Jul-12 23:01N 35°31' E 139°54'611.9
2018-Jul-12 22:31N 35°27' E 139°49'611.7
2018-Jul-12 22:01N 35°22' E 139°45'510.2
2018-Jul-12 21:31N 35°17' E 139°46'610.8
2018-Jul-12 21:00N 35°11' E 139°47'612.4
2018-Jul-12 20:30N 35°06' E 139°45'713.2
2018-Jul-12 19:59N 35°01' E 139°39'714.0
2018-Jul-12 19:30N 34°57' E 139°32'  

Dump ship's entire track history